Airfield :
LOGIN :

Register | Disclaimer

   EN    FR    IT 

 










Legend :    VFR   Marginal VFR   IFR   Intensive IFR   Very Intensive IFR
Visi :
Ceiling :
>= 8 km
>= 3000ft
5 to 8 km
1000 to 3000 ft
1500m to 5 km
500 to 1000 ft
800 to 1500m
200 to 500 ft
< 800m
< 200 ft
Symbols :   Thunderstorms  Fog  Heavy snow  Heavy precipitations  Wind > 20 kt
SIGMETs :     Misc.  Thunderstorms  Icing  Turbulence  Mountain Waves  Volcanic Ashes






- Airport Elevation : 39 ft
- IATA code : TRS


LIPQ - Friuli Venezia Giulia Apt. Trieste

CURRENT METAR :
  • 220050Z AUTO 01002KT 9999 FEW210/// SCT240/// M02/M02 Q1037

EXPIRED METARs :
  • 220020Z AUTO 35002KT 9999 BKN200/// BKN240/// M02/M02 Q1037
  • 212350Z AUTO 05002KT 9999 BKN210/// M01/M02 Q1037
  • 212320Z AUTO 02002KT 9999 BKN240/// M01/M02 Q1038
  • 212250Z 36003KT CAVOK M01/M02 Q1038

TAF TAF LIPQ
Valid from the 22 at 00:00 until the 23 at 00:00 UTC


212300Z 2200/2224 02005KT 9999 FEW030
PROB40
TEMPO 2200/2206 4000 BR



MET'MAP, your aeronautical weather chart ! - Copyright ORBIFLY December 2007 - Disclaimer

ORBIFLY MET'MAP TEAM :

Programming & Development : Alexandra Zaïnal
Concept & original design : Baudouin d'Aumeries
Assistance for programming : Marc-Olivier Méhu
Technical & hardware support : Manuel Goepfert

Contact : metmap@orbifly.com




SOURCES & CREDITS :

   NOAA